sensor_id;sensor_type;location;lat;lon;timestamp;P1;durP1;ratioP1;P2;durP2;ratioP2
16965;SDS011;8599;47.852;12.070;2024-02-04T00:00:17;18.77;;;9.50;;
16965;SDS011;8599;47.852;12.070;2024-02-04T00:02:44;27.77;;;10.50;;
16965;SDS011;8599;47.852;12.070;2024-02-04T00:05:11;25.07;;;11.97;;
16965;SDS011;8599;47.852;12.070;2024-02-04T00:07:38;21.13;;;11.30;;
16965;SDS011;8599;47.852;12.070;2024-02-04T00:10:05;25.87;;;10.60;;
16965;SDS011;8599;47.852;12.070;2024-02-04T00:12:32;19.67;;;9.87;;
16965;SDS011;8599;47.852;12.070;2024-02-04T00:14:59;20.40;;;11.00;;
16965;SDS011;8599;47.852;12.070;2024-02-04T00:17:27;24.33;;;11.10;;
16965;SDS011;8599;47.852;12.070;2024-02-04T00:19:56;33.17;;;15.43;;
16965;SDS011;8599;47.852;12.070;2024-02-04T00:22:23;24.93;;;10.87;;
16965;SDS011;8599;47.852;12.070;2024-02-04T00:24:50;21.50;;;9.60;;
16965;SDS011;8599;47.852;12.070;2024-02-04T00:27:17;21.00;;;9.77;;
16965;SDS011;8599;47.852;12.070;2024-02-04T00:29:44;19.37;;;9.40;;
16965;SDS011;8599;47.852;12.070;2024-02-04T00:32:10;25.13;;;9.03;;
16965;SDS011;8599;47.852;12.070;2024-02-04T00:34:38;14.87;;;9.10;;
16965;SDS011;8599;47.852;12.070;2024-02-04T00:37:05;17.07;;;9.30;;
16965;SDS011;8599;47.852;12.070;2024-02-04T00:39:32;23.87;;;9.53;;
16965;SDS011;8599;47.852;12.070;2024-02-04T00:41:59;18.47;;;9.33;;
16965;SDS011;8599;47.852;12.070;2024-02-04T00:44:26;21.03;;;9.53;;
16965;SDS011;8599;47.852;12.070;2024-02-04T00:46:52;20.37;;;9.60;;
16965;SDS011;8599;47.852;12.070;2024-02-04T00:49:19;18.13;;;9.63;;
16965;SDS011;8599;47.852;12.070;2024-02-04T00:51:47;19.20;;;9.07;;
16965;SDS011;8599;47.852;12.070;2024-02-04T00:54:14;19.07;;;8.97;;
16965;SDS011;8599;47.852;12.070;2024-02-04T00:56:41;17.97;;;8.70;;
16965;SDS011;8599;47.852;12.070;2024-02-04T00:59:07;24.23;;;8.97;;
16965;SDS011;8599;47.852;12.070;2024-02-04T01:01:34;22.97;;;10.27;;
16965;SDS011;8599;47.852;12.070;2024-02-04T01:04:01;24.17;;;10.73;;
16965;SDS011;8599;47.852;12.070;2024-02-04T01:06:28;20.33;;;10.27;;
16965;SDS011;8599;47.852;12.070;2024-02-04T01:08:57;19.23;;;9.77;;
16965;SDS011;8599;47.852;12.070;2024-02-04T01:11:23;20.77;;;9.63;;
16965;SDS011;8599;47.852;12.070;2024-02-04T01:13:50;21.87;;;10.13;;
16965;SDS011;8599;47.852;12.070;2024-02-04T01:16:17;16.13;;;9.20;;
16965;SDS011;8599;47.852;12.070;2024-02-04T01:18:44;23.57;;;10.97;;
16965;SDS011;8599;47.852;12.070;2024-02-04T01:21:11;15.07;;;8.67;;
16965;SDS011;8599;47.852;12.070;2024-02-04T01:23:37;24.97;;;12.30;;
16965;SDS011;8599;47.852;12.070;2024-02-04T01:26:06;16.23;;;8.20;;
16965;SDS011;8599;47.852;12.070;2024-02-04T01:28:32;15.97;;;7.53;;
16965;SDS011;8599;47.852;12.070;2024-02-04T01:31:00;16.63;;;8.37;;
16965;SDS011;8599;47.852;12.070;2024-02-04T01:33:27;17.23;;;7.47;;
16965;SDS011;8599;47.852;12.070;2024-02-04T01:35:54;11.97;;;7.37;;
16965;SDS011;8599;47.852;12.070;2024-02-04T01:38:21;13.13;;;7.10;;
16965;SDS011;8599;47.852;12.070;2024-02-04T01:40:48;14.20;;;7.57;;
16965;SDS011;8599;47.852;12.070;2024-02-04T01:43:19;15.77;;;6.87;;
16965;SDS011;8599;47.852;12.070;2024-02-04T01:45:47;13.30;;;6.97;;
16965;SDS011;8599;47.852;12.070;2024-02-04T01:48:16;25.03;;;8.10;;
16965;SDS011;8599;47.852;12.070;2024-02-04T01:50:43;12.83;;;7.77;;
16965;SDS011;8599;47.852;12.070;2024-02-04T01:53:12;13.47;;;7.07;;
16965;SDS011;8599;47.852;12.070;2024-02-04T01:55:38;16.03;;;7.60;;
16965;SDS011;8599;47.852;12.070;2024-02-04T01:58:05;13.70;;;6.23;;
16965;SDS011;8599;47.852;12.070;2024-02-04T02:00:34;10.37;;;6.37;;
16965;SDS011;8599;47.852;12.070;2024-02-04T02:03:01;16.37;;;7.53;;
16965;SDS011;8599;47.852;12.070;2024-02-04T02:05:31;14.60;;;6.07;;
16965;SDS011;8599;47.852;12.070;2024-02-04T02:07:58;14.03;;;6.00;;
16965;SDS011;8599;47.852;12.070;2024-02-04T02:10:25;10.97;;;5.93;;
16965;SDS011;8599;47.852;12.070;2024-02-04T02:12:54;13.07;;;6.10;;
16965;SDS011;8599;47.852;12.070;2024-02-04T02:15:25;10.90;;;6.00;;
16965;SDS011;8599;47.852;12.070;2024-02-04T02:17:58;11.57;;;5.27;;
16965;SDS011;8599;47.852;12.070;2024-02-04T02:20:30;8.33;;;4.83;;
16965;SDS011;8599;47.852;12.070;2024-02-04T02:23:06;8.33;;;5.30;;
16965;SDS011;8599;47.852;12.070;2024-02-04T02:25:38;13.70;;;5.63;;
16965;SDS011;8599;47.852;12.070;2024-02-04T02:28:06;10.77;;;5.73;;
16965;SDS011;8599;47.852;12.070;2024-02-04T02:30:34;12.20;;;6.07;;
16965;SDS011;8599;47.852;12.070;2024-02-04T02:33:01;16.53;;;6.07;;
16965;SDS011;8599;47.852;12.070;2024-02-04T02:35:29;14.57;;;7.17;;
16965;SDS011;8599;47.852;12.070;2024-02-04T02:37:59;10.83;;;6.47;;
16965;SDS011;8599;47.852;12.070;2024-02-04T02:40:33;15.03;;;7.40;;
16965;SDS011;8599;47.852;12.070;2024-02-04T02:43:05;11.43;;;6.30;;
16965;SDS011;8599;47.852;12.070;2024-02-04T02:45:34;13.37;;;6.67;;
16965;SDS011;8599;47.852;12.070;2024-02-04T02:48:01;13.90;;;6.60;;
16965;SDS011;8599;47.852;12.070;2024-02-04T02:50:31;10.43;;;6.60;;
16965;SDS011;8599;47.852;12.070;2024-02-04T02:52:58;16.43;;;6.33;;
16965;SDS011;8599;47.852;12.070;2024-02-04T02:55:25;14.93;;;6.50;;
16965;SDS011;8599;47.852;12.070;2024-02-04T02:57:52;7.33;;;5.00;;
16965;SDS011;8599;47.852;12.070;2024-02-04T03:00:20;11.03;;;6.17;;
16965;SDS011;8599;47.852;12.070;2024-02-04T03:02:47;12.37;;;6.10;;
16965;SDS011;8599;47.852;12.070;2024-02-04T03:05:15;12.07;;;5.83;;
16965;SDS011;8599;47.852;12.070;2024-02-04T03:07:44;9.27;;;5.47;;
16965;SDS011;8599;47.852;12.070;2024-02-04T03:10:11;10.57;;;5.90;;
16965;SDS011;8599;47.852;12.070;2024-02-04T03:12:38;12.33;;;6.10;;
16965;SDS011;8599;47.852;12.070;2024-02-04T03:15:05;13.60;;;6.10;;
16965;SDS011;8599;47.852;12.070;2024-02-04T03:17:34;9.63;;;5.47;;
16965;SDS011;8599;47.852;12.070;2024-02-04T03:20:00;7.80;;;5.23;;
16965;SDS011;8599;47.852;12.070;2024-02-04T03:22:27;13.67;;;5.93;;
16965;SDS011;8599;47.852;12.070;2024-02-04T03:24:54;9.03;;;5.67;;
16965;SDS011;8599;47.852;12.070;2024-02-04T03:27:21;12.10;;;6.23;;
16965;SDS011;8599;47.852;12.070;2024-02-04T03:29:48;8.27;;;5.33;;
16965;SDS011;8599;47.852;12.070;2024-02-04T03:32:14;10.80;;;5.27;;
16965;SDS011;8599;47.852;12.070;2024-02-04T03:34:43;14.57;;;4.83;;
16965;SDS011;8599;47.852;12.070;2024-02-04T03:37:10;11.47;;;4.83;;
16965;SDS011;8599;47.852;12.070;2024-02-04T03:39:36;10.37;;;4.80;;
16965;SDS011;8599;47.852;12.070;2024-02-04T03:42:03;9.27;;;5.10;;
16965;SDS011;8599;47.852;12.070;2024-02-04T03:44:30;9.33;;;5.27;;
16965;SDS011;8599;47.852;12.070;2024-02-04T03:46:57;8.43;;;4.93;;
16965;SDS011;8599;47.852;12.070;2024-02-04T03:49:24;9.27;;;5.23;;
16965;SDS011;8599;47.852;12.070;2024-02-04T03:51:52;9.23;;;5.20;;
16965;SDS011;8599;47.852;12.070;2024-02-04T03:54:19;6.57;;;4.70;;
16965;SDS011;8599;47.852;12.070;2024-02-04T03:56:46;9.40;;;4.93;;
16965;SDS011;8599;47.852;12.070;2024-02-04T03:59:13;9.17;;;5.30;;
16965;SDS011;8599;47.852;12.070;2024-02-04T04:01:40;7.17;;;4.83;;
16965;SDS011;8599;47.852;12.070;2024-02-04T04:04:07;6.10;;;4.37;;
16965;SDS011;8599;47.852;12.070;2024-02-04T04:06:34;6.60;;;4.83;;
16965;SDS011;8599;47.852;12.070;2024-02-04T04:09:02;8.13;;;5.13;;
16965;SDS011;8599;47.852;12.070;2024-02-04T04:11:29;10.83;;;5.40;;
16965;SDS011;8599;47.852;12.070;2024-02-04T04:13:56;6.83;;;5.10;;
16965;SDS011;8599;47.852;12.070;2024-02-04T04:16:23;9.77;;;4.63;;
16965;SDS011;8599;47.852;12.070;2024-02-04T04:18:50;6.43;;;4.90;;
16965;SDS011;8599;47.852;12.070;2024-02-04T04:21:17;7.17;;;4.40;;
16965;SDS011;8599;47.852;12.070;2024-02-04T04:23:44;9.70;;;4.73;;
16965;SDS011;8599;47.852;12.070;2024-02-04T04:26:12;6.80;;;4.70;;
16965;SDS011;8599;47.852;12.070;2024-02-04T04:28:39;10.80;;;5.50;;
16965;SDS011;8599;47.852;12.070;2024-02-04T04:31:05;7.77;;;4.83;;
16965;SDS011;8599;47.852;12.070;2024-02-04T04:33:32;9.30;;;5.00;;
16965;SDS011;8599;47.852;12.070;2024-02-04T04:35:59;7.70;;;5.00;;
16965;SDS011;8599;47.852;12.070;2024-02-04T04:38:26;9.23;;;4.80;;
16965;SDS011;8599;47.852;12.070;2024-02-04T04:40:53;8.90;;;4.70;;
16965;SDS011;8599;47.852;12.070;2024-02-04T04:43:21;8.53;;;4.80;;
16965;SDS011;8599;47.852;12.070;2024-02-04T04:45:47;6.13;;;4.30;;
16965;SDS011;8599;47.852;12.070;2024-02-04T04:48:14;7.20;;;4.30;;
16965;SDS011;8599;47.852;12.070;2024-02-04T04:50:41;8.13;;;4.67;;
16965;SDS011;8599;47.852;12.070;2024-02-04T04:53:08;8.50;;;4.47;;
16965;SDS011;8599;47.852;12.070;2024-02-04T04:55:35;11.17;;;4.87;;
16965;SDS011;8599;47.852;12.070;2024-02-04T04:58:02;9.20;;;4.90;;
16965;SDS011;8599;47.852;12.070;2024-02-04T05:00:30;6.67;;;4.47;;
16965;SDS011;8599;47.852;12.070;2024-02-04T05:02:57;9.83;;;4.80;;
16965;SDS011;8599;47.852;12.070;2024-02-04T05:05:24;13.97;;;4.13;;
16965;SDS011;8599;47.852;12.070;2024-02-04T05:07:51;7.90;;;4.80;;
16965;SDS011;8599;47.852;12.070;2024-02-04T05:10:17;5.67;;;3.80;;
16965;SDS011;8599;47.852;12.070;2024-02-04T05:12:44;10.57;;;4.63;;
16965;SDS011;8599;47.852;12.070;2024-02-04T05:15:11;7.00;;;4.13;;
16965;SDS011;8599;47.852;12.070;2024-02-04T05:17:39;5.87;;;4.00;;
16965;SDS011;8599;47.852;12.070;2024-02-04T05:20:06;5.80;;;4.17;;
16965;SDS011;8599;47.852;12.070;2024-02-04T05:22:33;7.10;;;4.20;;
16965;SDS011;8599;47.852;12.070;2024-02-04T05:25:00;6.93;;;4.00;;
16965;SDS011;8599;47.852;12.070;2024-02-04T05:27:27;6.13;;;3.70;;
16965;SDS011;8599;47.852;12.070;2024-02-04T05:29:54;8.97;;;4.50;;
16965;SDS011;8599;47.852;12.070;2024-02-04T05:32:21;8.67;;;4.83;;
16965;SDS011;8599;47.852;12.070;2024-02-04T05:34:49;6.43;;;4.07;;
16965;SDS011;8599;47.852;12.070;2024-02-04T05:37:16;7.80;;;4.03;;
16965;SDS011;8599;47.852;12.070;2024-02-04T05:39:43;5.63;;;3.97;;
16965;SDS011;8599;47.852;12.070;2024-02-04T05:42:09;7.70;;;4.00;;
16965;SDS011;8599;47.852;12.070;2024-02-04T05:44:36;9.47;;;4.60;;
16965;SDS011;8599;47.852;12.070;2024-02-04T05:47:03;5.50;;;4.10;;
16965;SDS011;8599;47.852;12.070;2024-02-04T05:49:30;8.63;;;4.17;;
16965;SDS011;8599;47.852;12.070;2024-02-04T05:51:58;8.60;;;3.77;;
16965;SDS011;8599;47.852;12.070;2024-02-04T05:54:25;5.53;;;4.30;;
16965;SDS011;8599;47.852;12.070;2024-02-04T05:56:52;9.77;;;4.10;;
16965;SDS011;8599;47.852;12.070;2024-02-04T05:59:19;8.30;;;4.30;;
16965;SDS011;8599;47.852;12.070;2024-02-04T06:01:45;13.33;;;4.07;;
16965;SDS011;8599;47.852;12.070;2024-02-04T06:04:12;7.57;;;4.63;;
16965;SDS011;8599;47.852;12.070;2024-02-04T06:06:39;7.87;;;4.40;;
16965;SDS011;8599;47.852;12.070;2024-02-04T06:09:07;7.43;;;4.27;;
16965;SDS011;8599;47.852;12.070;2024-02-04T06:11:35;5.53;;;4.30;;
16965;SDS011;8599;47.852;12.070;2024-02-04T06:14:02;8.53;;;4.67;;
16965;SDS011;8599;47.852;12.070;2024-02-04T06:16:29;7.93;;;4.60;;
16965;SDS011;8599;47.852;12.070;2024-02-04T06:18:55;7.00;;;4.67;;
16965;SDS011;8599;47.852;12.070;2024-02-04T06:21:23;6.67;;;4.20;;
16965;SDS011;8599;47.852;12.070;2024-02-04T06:23:50;6.77;;;4.43;;
16965;SDS011;8599;47.852;12.070;2024-02-04T06:26:18;8.50;;;5.13;;
16965;SDS011;8599;47.852;12.070;2024-02-04T06:28:45;7.43;;;4.53;;
16965;SDS011;8599;47.852;12.070;2024-02-04T06:31:13;11.87;;;5.50;;
16965;SDS011;8599;47.852;12.070;2024-02-04T06:33:40;6.20;;;4.70;;
16965;SDS011;8599;47.852;12.070;2024-02-04T06:36:08;7.93;;;4.80;;
16965;SDS011;8599;47.852;12.070;2024-02-04T06:38:35;9.60;;;5.47;;
16965;SDS011;8599;47.852;12.070;2024-02-04T06:41:03;8.20;;;5.00;;
16965;SDS011;8599;47.852;12.070;2024-02-04T06:43:31;6.87;;;4.87;;
16965;SDS011;8599;47.852;12.070;2024-02-04T06:45:58;8.03;;;4.60;;
16965;SDS011;8599;47.852;12.070;2024-02-04T06:48:25;7.63;;;4.83;;
16965;SDS011;8599;47.852;12.070;2024-02-04T06:50:52;7.40;;;4.37;;
16965;SDS011;8599;47.852;12.070;2024-02-04T06:53:18;9.40;;;5.40;;
16965;SDS011;8599;47.852;12.070;2024-02-04T06:55:45;12.40;;;5.50;;
16965;SDS011;8599;47.852;12.070;2024-02-04T06:58:12;6.97;;;4.80;;
16965;SDS011;8599;47.852;12.070;2024-02-04T07:00:40;7.10;;;4.90;;
16965;SDS011;8599;47.852;12.070;2024-02-04T07:03:07;10.27;;;5.37;;
16965;SDS011;8599;47.852;12.070;2024-02-04T07:05:34;8.77;;;4.80;;
16965;SDS011;8599;47.852;12.070;2024-02-04T07:08:02;9.60;;;4.47;;
16965;SDS011;8599;47.852;12.070;2024-02-04T07:10:29;8.33;;;5.03;;
16965;SDS011;8599;47.852;12.070;2024-02-04T07:12:55;7.63;;;4.47;;
16965;SDS011;8599;47.852;12.070;2024-02-04T07:15:22;8.37;;;4.87;;
16965;SDS011;8599;47.852;12.070;2024-02-04T07:17:51;7.63;;;4.53;;
16965;SDS011;8599;47.852;12.070;2024-02-04T07:20:18;9.70;;;5.37;;
16965;SDS011;8599;47.852;12.070;2024-02-04T07:22:45;7.30;;;4.80;;
16965;SDS011;8599;47.852;12.070;2024-02-04T07:25:11;11.57;;;5.90;;
16965;SDS011;8599;47.852;12.070;2024-02-04T07:27:38;9.03;;;5.27;;
16965;SDS011;8599;47.852;12.070;2024-02-04T07:30:06;9.10;;;5.33;;
16965;SDS011;8599;47.852;12.070;2024-02-04T07:32:33;10.93;;;5.13;;
16965;SDS011;8599;47.852;12.070;2024-02-04T07:35:03;12.80;;;6.13;;
16965;SDS011;8599;47.852;12.070;2024-02-04T07:37:31;16.20;;;7.77;;
16965;SDS011;8599;47.852;12.070;2024-02-04T07:39:58;22.37;;;8.07;;
16965;SDS011;8599;47.852;12.070;2024-02-04T07:42:26;11.83;;;6.97;;
16965;SDS011;8599;47.852;12.070;2024-02-04T07:44:52;17.23;;;7.10;;
16965;SDS011;8599;47.852;12.070;2024-02-04T07:47:19;17.03;;;6.27;;
16965;SDS011;8599;47.852;12.070;2024-02-04T07:49:46;11.77;;;5.43;;
16965;SDS011;8599;47.852;12.070;2024-02-04T07:52:15;14.23;;;6.10;;
16965;SDS011;8599;47.852;12.070;2024-02-04T07:54:42;13.23;;;5.60;;
16965;SDS011;8599;47.852;12.070;2024-02-04T07:57:09;6.37;;;5.17;;
16965;SDS011;8599;47.852;12.070;2024-02-04T07:59:36;17.63;;;6.60;;
16965;SDS011;8599;47.852;12.070;2024-02-04T08:02:03;14.17;;;7.73;;
16965;SDS011;8599;47.852;12.070;2024-02-04T08:04:31;9.53;;;6.20;;
16965;SDS011;8599;47.852;12.070;2024-02-04T08:06:58;15.57;;;9.40;;
16965;SDS011;8599;47.852;12.070;2024-02-04T08:09:26;15.23;;;7.80;;
16965;SDS011;8599;47.852;12.070;2024-02-04T08:11:53;11.97;;;7.57;;
16965;SDS011;8599;47.852;12.070;2024-02-04T08:14:20;20.70;;;7.37;;
16965;SDS011;8599;47.852;12.070;2024-02-04T08:16:46;12.00;;;7.23;;
16965;SDS011;8599;47.852;12.070;2024-02-04T08:19:13;10.73;;;6.07;;
16965;SDS011;8599;47.852;12.070;2024-02-04T08:21:40;10.70;;;5.70;;
16965;SDS011;8599;47.852;12.070;2024-02-04T08:24:07;11.27;;;5.53;;
16965;SDS011;8599;47.852;12.070;2024-02-04T08:26:35;8.57;;;4.80;;
16965;SDS011;8599;47.852;12.070;2024-02-04T08:29:02;9.73;;;5.07;;
16965;SDS011;8599;47.852;12.070;2024-02-04T08:31:30;7.70;;;4.57;;
16965;SDS011;8599;47.852;12.070;2024-02-04T08:33:58;9.17;;;4.80;;
16965;SDS011;8599;47.852;12.070;2024-02-04T08:36:24;9.87;;;5.13;;
16965;SDS011;8599;47.852;12.070;2024-02-04T08:38:51;12.33;;;5.50;;
16965;SDS011;8599;47.852;12.070;2024-02-04T08:41:19;14.87;;;6.47;;
16965;SDS011;8599;47.852;12.070;2024-02-04T08:43:47;10.23;;;4.90;;
16965;SDS011;8599;47.852;12.070;2024-02-04T08:46:14;7.77;;;4.10;;
16965;SDS011;8599;47.852;12.070;2024-02-04T08:48:40;8.23;;;4.47;;
16965;SDS011;8599;47.852;12.070;2024-02-04T08:51:10;9.17;;;4.60;;
16965;SDS011;8599;47.852;12.070;2024-02-04T08:53:37;9.77;;;4.40;;
16965;SDS011;8599;47.852;12.070;2024-02-04T08:56:05;11.17;;;4.83;;
16965;SDS011;8599;47.852;12.070;2024-02-04T08:58:32;7.07;;;3.47;;
16965;SDS011;8599;47.852;12.070;2024-02-04T09:01:00;8.27;;;4.70;;
16965;SDS011;8599;47.852;12.070;2024-02-04T09:03:27;8.13;;;4.57;;
16965;SDS011;8599;47.852;12.070;2024-02-04T09:05:54;9.23;;;4.50;;
16965;SDS011;8599;47.852;12.070;2024-02-04T09:08:21;7.43;;;4.40;;
16965;SDS011;8599;47.852;12.070;2024-02-04T09:10:48;7.53;;;4.23;;
16965;SDS011;8599;47.852;12.070;2024-02-04T09:13:15;11.20;;;5.20;;
16965;SDS011;8599;47.852;12.070;2024-02-04T09:15:42;9.27;;;5.87;;
16965;SDS011;8599;47.852;12.070;2024-02-04T09:18:10;19.83;;;8.87;;
16965;SDS011;8599;47.852;12.070;2024-02-04T09:20:37;19.73;;;10.83;;
16965;SDS011;8599;47.852;12.070;2024-02-04T09:23:04;35.17;;;19.53;;
16965;SDS011;8599;47.852;12.070;2024-02-04T09:25:31;19.80;;;10.97;;
16965;SDS011;8599;47.852;12.070;2024-02-04T09:27:58;25.73;;;11.90;;
16965;SDS011;8599;47.852;12.070;2024-02-04T09:30:25;18.43;;;8.60;;
16965;SDS011;8599;47.852;12.070;2024-02-04T09:32:53;13.20;;;7.07;;
16965;SDS011;8599;47.852;12.070;2024-02-04T09:35:21;12.37;;;4.90;;
16965;SDS011;8599;47.852;12.070;2024-02-04T09:37:48;9.40;;;4.53;;
16965;SDS011;8599;47.852;12.070;2024-02-04T09:40:15;16.47;;;6.27;;
16965;SDS011;8599;47.852;12.070;2024-02-04T09:42:42;9.13;;;4.87;;
16965;SDS011;8599;47.852;12.070;2024-02-04T09:45:09;7.20;;;4.27;;
16965;SDS011;8599;47.852;12.070;2024-02-04T09:47:37;10.40;;;4.43;;
16965;SDS011;8599;47.852;12.070;2024-02-04T09:50:06;7.73;;;3.90;;
16965;SDS011;8599;47.852;12.070;2024-02-04T09:52:37;9.80;;;4.53;;
16965;SDS011;8599;47.852;12.070;2024-02-04T09:55:06;9.30;;;4.73;;
16965;SDS011;8599;47.852;12.070;2024-02-04T09:57:35;12.40;;;4.77;;
16965;SDS011;8599;47.852;12.070;2024-02-04T10:00:02;8.00;;;3.83;;
16965;SDS011;8599;47.852;12.070;2024-02-04T10:02:30;6.20;;;3.73;;
16965;SDS011;8599;47.852;12.070;2024-02-04T10:04:58;12.70;;;6.23;;
16965;SDS011;8599;47.852;12.070;2024-02-04T10:07:26;8.63;;;4.20;;
16965;SDS011;8599;47.852;12.070;2024-02-04T10:09:54;11.07;;;5.07;;
16965;SDS011;8599;47.852;12.070;2024-02-04T10:12:21;9.00;;;4.30;;
16965;SDS011;8599;47.852;12.070;2024-02-04T10:14:48;7.00;;;3.53;;
16965;SDS011;8599;47.852;12.070;2024-02-04T10:17:15;7.53;;;3.83;;
16965;SDS011;8599;47.852;12.070;2024-02-04T10:19:42;7.67;;;4.20;;
16965;SDS011;8599;47.852;12.070;2024-02-04T10:22:09;8.80;;;3.90;;
16965;SDS011;8599;47.852;12.070;2024-02-04T10:24:36;5.23;;;3.87;;
16965;SDS011;8599;47.852;12.070;2024-02-04T10:27:05;9.47;;;3.77;;
16965;SDS011;8599;47.852;12.070;2024-02-04T10:29:32;7.37;;;4.57;;
16965;SDS011;8599;47.852;12.070;2024-02-04T10:31:59;8.77;;;3.70;;
16965;SDS011;8599;47.852;12.070;2024-02-04T10:34:26;11.30;;;4.23;;
16965;SDS011;8599;47.852;12.070;2024-02-04T10:36:55;8.73;;;4.33;;
16965;SDS011;8599;47.852;12.070;2024-02-04T10:39:22;9.50;;;4.40;;
16965;SDS011;8599;47.852;12.070;2024-02-04T10:41:49;14.07;;;4.53;;
16965;SDS011;8599;47.852;12.070;2024-02-04T10:44:20;14.00;;;5.73;;
16965;SDS011;8599;47.852;12.070;2024-02-04T10:46:48;9.23;;;4.07;;
16965;SDS011;8599;47.852;12.070;2024-02-04T10:49:17;9.47;;;4.03;;
16965;SDS011;8599;47.852;12.070;2024-02-04T10:51:45;12.17;;;4.20;;
16965;SDS011;8599;47.852;12.070;2024-02-04T10:54:14;11.17;;;4.83;;
16965;SDS011;8599;47.852;12.070;2024-02-04T10:56:43;10.83;;;4.70;;
16965;SDS011;8599;47.852;12.070;2024-02-04T10:59:11;10.27;;;4.30;;
16965;SDS011;8599;47.852;12.070;2024-02-04T11:01:44;13.73;;;4.47;;
16965;SDS011;8599;47.852;12.070;2024-02-04T11:04:13;13.17;;;6.03;;
16965;SDS011;8599;47.852;12.070;2024-02-04T11:06:42;11.33;;;4.63;;
16965;SDS011;8599;47.852;12.070;2024-02-04T11:09:10;14.17;;;4.47;;
16965;SDS011;8599;47.852;12.070;2024-02-04T11:11:39;10.00;;;4.33;;
16965;SDS011;8599;47.852;12.070;2024-02-04T11:14:08;16.20;;;3.80;;
16965;SDS011;8599;47.852;12.070;2024-02-04T11:16:46;8.37;;;3.50;;
16965;SDS011;8599;47.852;12.070;2024-02-04T11:19:30;15.70;;;4.67;;
16965;SDS011;8599;47.852;12.070;2024-02-04T11:22:09;11.17;;;5.47;;
16965;SDS011;8599;47.852;12.070;2024-02-04T11:24:52;15.60;;;3.60;;
16965;SDS011;8599;47.852;12.070;2024-02-04T11:27:29;7.70;;;3.80;;
16965;SDS011;8599;47.852;12.070;2024-02-04T11:29:56;8.30;;;3.77;;
16965;SDS011;8599;47.852;12.070;2024-02-04T11:32:25;15.13;;;4.97;;
16965;SDS011;8599;47.852;12.070;2024-02-04T11:34:52;7.10;;;3.90;;
16965;SDS011;8599;47.852;12.070;2024-02-04T11:37:20;11.83;;;3.47;;
16965;SDS011;8599;47.852;12.070;2024-02-04T11:39:50;23.53;;;5.80;;
16965;SDS011;8599;47.852;12.070;2024-02-04T11:42:17;18.53;;;5.60;;
16965;SDS011;8599;47.852;12.070;2024-02-04T11:44:45;7.33;;;3.87;;
16965;SDS011;8599;47.852;12.070;2024-02-04T11:47:22;10.43;;;3.30;;
16965;SDS011;8599;47.852;12.070;2024-02-04T11:49:54;13.03;;;1.70;;
16965;SDS011;8599;47.852;12.070;2024-02-04T11:52:22;7.93;;;2.13;;
16965;SDS011;8599;47.852;12.070;2024-02-04T11:54:48;6.50;;;1.90;;
16965;SDS011;8599;47.852;12.070;2024-02-04T11:57:15;3.70;;;1.73;;
16965;SDS011;8599;47.852;12.070;2024-02-04T11:59:42;3.80;;;1.33;;
16965;SDS011;8599;47.852;12.070;2024-02-04T12:02:10;8.67;;;1.87;;
16965;SDS011;8599;47.852;12.070;2024-02-04T12:04:37;6.47;;;1.93;;
16965;SDS011;8599;47.852;12.070;2024-02-04T12:07:07;5.40;;;1.50;;
16965;SDS011;8599;47.852;12.070;2024-02-04T12:09:34;7.63;;;1.43;;
16965;SDS011;8599;47.852;12.070;2024-02-04T12:12:02;11.53;;;2.23;;
16965;SDS011;8599;47.852;12.070;2024-02-04T12:14:29;5.00;;;1.60;;
16965;SDS011;8599;47.852;12.070;2024-02-04T12:16:57;7.67;;;2.50;;
16965;SDS011;8599;47.852;12.070;2024-02-04T12:19:24;7.23;;;1.80;;
16965;SDS011;8599;47.852;12.070;2024-02-04T12:21:52;3.80;;;1.43;;
16965;SDS011;8599;47.852;12.070;2024-02-04T12:24:21;6.47;;;1.80;;
16965;SDS011;8599;47.852;12.070;2024-02-04T12:26:48;11.87;;;1.67;;
16965;SDS011;8599;47.852;12.070;2024-02-04T12:29:15;10.93;;;1.50;;
16965;SDS011;8599;47.852;12.070;2024-02-04T12:31:42;6.37;;;1.50;;
16965;SDS011;8599;47.852;12.070;2024-02-04T12:34:10;5.77;;;1.93;;
16965;SDS011;8599;47.852;12.070;2024-02-04T12:36:39;5.00;;;1.50;;
16965;SDS011;8599;47.852;12.070;2024-02-04T12:39:05;3.17;;;1.13;;
16965;SDS011;8599;47.852;12.070;2024-02-04T12:41:38;6.80;;;2.57;;
16965;SDS011;8599;47.852;12.070;2024-02-04T12:44:05;7.07;;;2.70;;
16965;SDS011;8599;47.852;12.070;2024-02-04T12:46:32;9.83;;;2.67;;
16965;SDS011;8599;47.852;12.070;2024-02-04T12:48:58;4.27;;;1.73;;
16965;SDS011;8599;47.852;12.070;2024-02-04T12:51:26;8.20;;;1.90;;
16965;SDS011;8599;47.852;12.070;2024-02-04T12:54:03;6.07;;;1.73;;
16965;SDS011;8599;47.852;12.070;2024-02-04T12:56:45;5.93;;;1.97;;
16965;SDS011;8599;47.852;12.070;2024-02-04T12:59:25;7.57;;;2.30;;
16965;SDS011;8599;47.852;12.070;2024-02-04T13:01:53;5.43;;;1.37;;
16965;SDS011;8599;47.852;12.070;2024-02-04T13:04:21;9.90;;;1.70;;
16965;SDS011;8599;47.852;12.070;2024-02-04T13:06:48;5.73;;;1.60;;
16965;SDS011;8599;47.852;12.070;2024-02-04T13:09:16;7.93;;;1.57;;
16965;SDS011;8599;47.852;12.070;2024-02-04T13:11:44;5.97;;;2.13;;
16965;SDS011;8599;47.852;12.070;2024-02-04T13:14:11;5.17;;;2.00;;
16965;SDS011;8599;47.852;12.070;2024-02-04T13:16:38;10.07;;;1.93;;
16965;SDS011;8599;47.852;12.070;2024-02-04T13:19:05;5.17;;;1.80;;
16965;SDS011;8599;47.852;12.070;2024-02-04T13:21:32;5.53;;;1.80;;
16965;SDS011;8599;47.852;12.070;2024-02-04T13:23:59;10.83;;;1.90;;
16965;SDS011;8599;47.852;12.070;2024-02-04T13:26:26;6.17;;;2.60;;
16965;SDS011;8599;47.852;12.070;2024-02-04T13:28:54;8.77;;;1.90;;
16965;SDS011;8599;47.852;12.070;2024-02-04T13:31:21;9.00;;;1.93;;
16965;SDS011;8599;47.852;12.070;2024-02-04T13:33:48;12.83;;;2.13;;
16965;SDS011;8599;47.852;12.070;2024-02-04T13:36:15;5.67;;;2.00;;
16965;SDS011;8599;47.852;12.070;2024-02-04T13:38:41;5.40;;;1.60;;
16965;SDS011;8599;47.852;12.070;2024-02-04T13:41:08;5.80;;;1.70;;
16965;SDS011;8599;47.852;12.070;2024-02-04T13:43:35;7.80;;;2.30;;
16965;SDS011;8599;47.852;12.070;2024-02-04T13:46:03;15.33;;;2.30;;
16965;SDS011;8599;47.852;12.070;2024-02-04T13:48:31;15.90;;;2.20;;
16965;SDS011;8599;47.852;12.070;2024-02-04T13:50:58;5.53;;;1.83;;
16965;SDS011;8599;47.852;12.070;2024-02-04T13:53:25;5.03;;;1.70;;
16965;SDS011;8599;47.852;12.070;2024-02-04T13:55:52;11.43;;;2.10;;
16965;SDS011;8599;47.852;12.070;2024-02-04T13:58:19;9.77;;;2.00;;
16965;SDS011;8599;47.852;12.070;2024-02-04T14:00:48;4.30;;;1.73;;
16965;SDS011;8599;47.852;12.070;2024-02-04T14:03:16;6.23;;;2.20;;
16965;SDS011;8599;47.852;12.070;2024-02-04T14:05:43;10.63;;;2.13;;
16965;SDS011;8599;47.852;12.070;2024-02-04T14:08:09;6.70;;;1.90;;
16965;SDS011;8599;47.852;12.070;2024-02-04T14:10:36;4.87;;;1.90;;
16965;SDS011;8599;47.852;12.070;2024-02-04T14:13:03;6.37;;;1.50;;
16965;SDS011;8599;47.852;12.070;2024-02-04T14:15:31;6.83;;;1.40;;
16965;SDS011;8599;47.852;12.070;2024-02-04T14:17:59;5.33;;;1.30;;
16965;SDS011;8599;47.852;12.070;2024-02-04T14:20:27;6.47;;;1.53;;
16965;SDS011;8599;47.852;12.070;2024-02-04T14:22:54;6.40;;;1.70;;
16965;SDS011;8599;47.852;12.070;2024-02-04T14:25:21;3.73;;;1.30;;
16965;SDS011;8599;47.852;12.070;2024-02-04T14:27:49;5.93;;;1.60;;
16965;SDS011;8599;47.852;12.070;2024-02-04T14:30:16;10.13;;;1.70;;
16965;SDS011;8599;47.852;12.070;2024-02-04T14:32:43;7.13;;;1.27;;
16965;SDS011;8599;47.852;12.070;2024-02-04T14:35:09;11.87;;;1.77;;
16965;SDS011;8599;47.852;12.070;2024-02-04T14:37:37;4.87;;;1.77;;
16965;SDS011;8599;47.852;12.070;2024-02-04T14:40:05;7.27;;;1.63;;
16965;SDS011;8599;47.852;12.070;2024-02-04T14:42:33;7.17;;;2.70;;